Aérodrome :
LOGIN :

S'inscrire | Disclaimer

   EN    FR    IT 

 










Légende :    VFR   VFR Marginal   IFR   IFR Intensif   IFR Très Intensif
Visi : 
Plafond : 
>= 8 km
>= 3000ft
5 à 8 km
1000 à 3000 ft
1500m à 5 km
500 à 1000 ft
800 à 1500m
200 à 500 ft
< 800m
< 200 ft
Symboles :   Orages  Brouillard  Fortes neiges  Fortes précipitations  Vent > 20 kt
SIGMETs :   Divers  Orages  Givrage  Turbulence  Onde Orograph.  Cendres Volcan.






- Altitude de l'aérodrome : 1521 ft
- Code IATA : NCY


LFLP - Annecy

DERNIER METAR :
  • 122100Z AUTO 04005KT CAVOK 25/14 Q1016

METARs EXPIRÉS :
  • 122030Z AUTO 04008KT 010V070 CAVOK 25/14 Q1016
  • 122000Z AUTO 04007KT CAVOK 25/15 Q1015
  • 121930Z AUTO 04010KT CAVOK 26/15 Q1015
  • 121830Z AUTO VRB01KT CAVOK 29/14 Q1015 NOSIG

TAF AMD TAF LFLP
Valide du 12 à 15h jusqu'au 13 à 15h UTC


121530Z 1215/1315 25005KT CAVOK
PROB30
TEMPO 1215/1218 VRB13KT -TSRA SCT090CB
PROB40
TEMPO 1221/1302 -SHRA FEW080CB
PROB40
TEMPO 1312/1315 VRB15G30KT 4000 TSRA BKN060CB



MET'MAP, la Météo Aéronautique d'un coup d'oeil ! - Copyright ORBIFLY Décembre 2007 - Disclaimer

ORBIFLY MET'MAP TEAM :

Programmation & Développement : Alexandra Zaïnal
Sur une idée originale de : Baudouin d'Aumeries
Assistance à la programmation : Marc-Olivier Méhu
Soutien technique & logistique : Manuel Goepfert

Contact : metmap@orbifly.com




SOURCES & CREDITS :

   NOAA